Here is the Quick Look data you requested

The Data originates at the National Weather Service, and is made available here by the UAlbany Department of Atmospheric and Environmental Sciences

Surface Observations

KCVG 210452Z 18006KT 10SM FEW250 23/21 A3012 RMK AO2 SLP188 T02330211 403220206=
KCVG 210552Z 18005KT 10SM CLR 23/21 A3012 RMK AO2 SLP188 T02280211 10272 20228
 51006=
KCVG 210652Z 20005KT 10SM FEW250 23/21 A3014 RMK AO2 SLP192 T02330211=
KCVG 210752Z 21005KT 10SM FEW250 23/21 A3013 RMK AO2 SLP192 T02280206=
KCVG 210852Z 21005KT 10SM FEW250 22/21 A3013 RMK AO2 SLP192 T02220206 51004=
KCVG 210952Z 22004KT 10SM SCT250 23/21 A3015 RMK AO2 SLP197 T02280206=
KCVG 211052Z 20004KT 10SM SCT250 22/21 A3016 RMK AO2 SLP203 T02170206=
KCVG 211152Z 21003KT 8SM FEW140 BKN300 23/21 A3017 RMK AO2 SLP206 T02280211
 10239 20217 51012=
KCVG 211252Z 20005KT 9SM FEW160 SCT300 24/21 A3016 RMK AO2 SLP203 T02440211=
KCVG 211352Z 23006KT 10SM FEW200 SCT300 27/21 A3017 RMK AO2 SLP205 T02720211=
KCVG 211452Z 23004KT 10SM FEW250 SCT300 29/22 A3017 RMK AO2 SLP207 T02890217
 53002=
KCVG 211552Z 21008KT 10SM FEW180 FEW250 30/22 A3017 RMK AO2 SLP206 T03000217=
KCVG 211652Z 19009KT 10SM FEW250 31/22 A3016 RMK AO2 SLP203 T03110217=
KCVG 211752Z 20008KT 10SM SCT250 31/21 A3015 RMK AO2 SLP199 T03110211 10317
 20228 58007=
KCVG 211852Z 20004KT 10SM SCT250 29/22 A3014 RMK AO2 SLP193 ECLIPSE EVENT
 T02890222=
KCVG 211952Z 22007KT 10SM FEW150 BKN250 32/21 A3012 RMK AO2 SLP188 BLDUPS DSNT
 NW T03170211=
KCVG 212052Z 21006KT 10SM FEW060 BKN250 31/21 A3011 RMK AO2 SLP183 T03110211
 56015=
KCVG 212152Z 22008KT 10SM FEW050 SCT200 OVC250 31/21 A3011 RMK AO2 SLP185
 T03060211=
KCVG 212252Z 23003KT 10SM FEW050 OVC220 29/21 A3010 RMK AO2 SLP181 T02940211=
KCVG 212352Z 20003KT 10SM FEW060 BKN200 OVC250 28/22 A3010 RMK AO2 SLP181
 T02830217 10322 20283 58002=
KCVG 220052Z 19004KT 10SM BKN150 OVC200 26/23 A3009 RMK AO2 SLP180 T02560228=
KCVG 220152Z 19005KT 10SM BKN150 OVC250 26/22 A3009 RMK AO2 SLP179 T02560222=
KCVG 220252Z 19006KT 10SM BKN160 OVC250 26/22 A3009 RMK AO2 SLP178 T02560217
 56003=
KCVG 220352Z 19006KT 10SM SCT150 BKN220 25/22 A3008 RMK AO2 SLP175 T02500217=
KCVG 220452Z 18007KT 10SM BKN170 OVC230 24/22 A3006 RMK AO2 SLP168 T02390217
 403220217=